sensor_id;sensor_type;location;lat;lon;timestamp;P1;durP1;ratioP1;P2;durP2;ratioP2
11807;SDS011;5961;42.640;23.380;2023-11-18T00:01:21;0.70;;;0.70;;
11807;SDS011;5961;42.640;23.380;2023-11-18T00:03:48;0.63;;;0.63;;
11807;SDS011;5961;42.640;23.380;2023-11-18T00:06:15;0.80;;;0.80;;
11807;SDS011;5961;42.640;23.380;2023-11-18T00:08:43;0.70;;;0.70;;
11807;SDS011;5961;42.640;23.380;2023-11-18T00:11:10;1.70;;;0.70;;
11807;SDS011;5961;42.640;23.380;2023-11-18T00:13:38;0.73;;;0.73;;
11807;SDS011;5961;42.640;23.380;2023-11-18T00:16:07;0.60;;;0.60;;
11807;SDS011;5961;42.640;23.380;2023-11-18T00:18:37;1.67;;;0.70;;
11807;SDS011;5961;42.640;23.380;2023-11-18T00:21:04;0.83;;;0.83;;
11807;SDS011;5961;42.640;23.380;2023-11-18T00:23:32;1.40;;;0.97;;
11807;SDS011;5961;42.640;23.380;2023-11-18T00:26:00;0.80;;;0.80;;
11807;SDS011;5961;42.640;23.380;2023-11-18T00:28:28;0.70;;;0.70;;
11807;SDS011;5961;42.640;23.380;2023-11-18T00:30:55;0.87;;;0.87;;
11807;SDS011;5961;42.640;23.380;2023-11-18T00:33:21;0.70;;;0.70;;
11807;SDS011;5961;42.640;23.380;2023-11-18T00:35:48;0.80;;;0.80;;
11807;SDS011;5961;42.640;23.380;2023-11-18T00:38:15;0.60;;;0.60;;
11807;SDS011;5961;42.640;23.380;2023-11-18T00:40:43;0.60;;;0.60;;
11807;SDS011;5961;42.640;23.380;2023-11-18T00:43:11;0.73;;;0.73;;
11807;SDS011;5961;42.640;23.380;2023-11-18T00:45:38;0.90;;;0.90;;
11807;SDS011;5961;42.640;23.380;2023-11-18T00:48:06;0.70;;;0.70;;
11807;SDS011;5961;42.640;23.380;2023-11-18T00:50:33;0.80;;;0.80;;
11807;SDS011;5961;42.640;23.380;2023-11-18T00:53:00;0.80;;;0.80;;
11807;SDS011;5961;42.640;23.380;2023-11-18T00:58:14;0.80;;;0.80;;
11807;SDS011;5961;42.640;23.380;2023-11-18T01:00:40;1.10;;;1.00;;
11807;SDS011;5961;42.640;23.380;2023-11-18T01:03:07;1.23;;;1.00;;
11807;SDS011;5961;42.640;23.380;2023-11-18T01:05:35;0.90;;;0.90;;
11807;SDS011;5961;42.640;23.380;2023-11-18T01:08:02;1.00;;;1.00;;
11807;SDS011;5961;42.640;23.380;2023-11-18T01:10:30;0.97;;;0.90;;
11807;SDS011;5961;42.640;23.380;2023-11-18T01:12:57;0.90;;;0.90;;
11807;SDS011;5961;42.640;23.380;2023-11-18T01:15:25;1.03;;;0.90;;
11807;SDS011;5961;42.640;23.380;2023-11-18T01:17:52;0.93;;;0.93;;
11807;SDS011;5961;42.640;23.380;2023-11-18T01:20:18;1.30;;;1.20;;
11807;SDS011;5961;42.640;23.380;2023-11-18T01:22:47;1.20;;;1.10;;
11807;SDS011;5961;42.640;23.380;2023-11-18T01:25:14;1.20;;;1.10;;
11807;SDS011;5961;42.640;23.380;2023-11-18T01:27:42;1.33;;;1.17;;
11807;SDS011;5961;42.640;23.380;2023-11-18T01:30:12;1.23;;;1.13;;
11807;SDS011;5961;42.640;23.380;2023-11-18T01:32:40;1.50;;;1.10;;
11807;SDS011;5961;42.640;23.380;2023-11-18T01:35:08;1.13;;;1.10;;
11807;SDS011;5961;42.640;23.380;2023-11-18T01:37:35;1.20;;;1.20;;
11807;SDS011;5961;42.640;23.380;2023-11-18T01:40:03;1.20;;;1.20;;
11807;SDS011;5961;42.640;23.380;2023-11-18T01:42:32;1.27;;;1.17;;
11807;SDS011;5961;42.640;23.380;2023-11-18T01:44:59;1.10;;;1.10;;
11807;SDS011;5961;42.640;23.380;2023-11-18T01:47:28;1.10;;;1.10;;
11807;SDS011;5961;42.640;23.380;2023-11-18T01:49:58;1.43;;;1.27;;
11807;SDS011;5961;42.640;23.380;2023-11-18T01:52:26;1.53;;;1.43;;
11807;SDS011;5961;42.640;23.380;2023-11-18T01:54:55;1.30;;;1.20;;
11807;SDS011;5961;42.640;23.380;2023-11-18T01:57:22;1.23;;;1.23;;
11807;SDS011;5961;42.640;23.380;2023-11-18T01:59:51;1.20;;;1.20;;
11807;SDS011;5961;42.640;23.380;2023-11-18T02:02:19;1.30;;;1.30;;
11807;SDS011;5961;42.640;23.380;2023-11-18T02:04:46;1.40;;;1.30;;
11807;SDS011;5961;42.640;23.380;2023-11-18T02:07:14;1.13;;;1.13;;
11807;SDS011;5961;42.640;23.380;2023-11-18T02:09:41;1.60;;;1.50;;
11807;SDS011;5961;42.640;23.380;2023-11-18T02:12:14;0.90;;;0.90;;
11807;SDS011;5961;42.640;23.380;2023-11-18T02:14:46;1.40;;;1.30;;
11807;SDS011;5961;42.640;23.380;2023-11-18T02:17:17;1.50;;;1.40;;
11807;SDS011;5961;42.640;23.380;2023-11-18T02:19:48;1.53;;;1.43;;
11807;SDS011;5961;42.640;23.380;2023-11-18T02:22:17;1.70;;;1.60;;
11807;SDS011;5961;42.640;23.380;2023-11-18T02:24:44;1.20;;;1.20;;
11807;SDS011;5961;42.640;23.380;2023-11-18T02:27:13;1.50;;;1.40;;
11807;SDS011;5961;42.640;23.380;2023-11-18T02:29:40;1.67;;;1.57;;
11807;SDS011;5961;42.640;23.380;2023-11-18T02:32:12;1.70;;;1.40;;
11807;SDS011;5961;42.640;23.380;2023-11-18T02:34:45;1.50;;;1.40;;
11807;SDS011;5961;42.640;23.380;2023-11-18T02:37:18;1.63;;;1.40;;
11807;SDS011;5961;42.640;23.380;2023-11-18T02:39:48;1.80;;;1.70;;
11807;SDS011;5961;42.640;23.380;2023-11-18T02:42:21;1.70;;;1.60;;
11807;SDS011;5961;42.640;23.380;2023-11-18T02:44:49;1.83;;;1.73;;
11807;SDS011;5961;42.640;23.380;2023-11-18T02:47:24;1.90;;;1.80;;
11807;SDS011;5961;42.640;23.380;2023-11-18T02:49:53;1.83;;;1.73;;
11807;SDS011;5961;42.640;23.380;2023-11-18T02:52:28;2.90;;;1.70;;
11807;SDS011;5961;42.640;23.380;2023-11-18T02:54:54;1.60;;;1.50;;
11807;SDS011;5961;42.640;23.380;2023-11-18T02:57:23;2.13;;;1.93;;
11807;SDS011;5961;42.640;23.380;2023-11-18T02:59:49;1.80;;;1.70;;
11807;SDS011;5961;42.640;23.380;2023-11-18T03:02:16;1.80;;;1.70;;
11807;SDS011;5961;42.640;23.380;2023-11-18T03:04:46;1.90;;;1.80;;
11807;SDS011;5961;42.640;23.380;2023-11-18T03:07:12;2.10;;;1.90;;
11807;SDS011;5961;42.640;23.380;2023-11-18T03:09:39;2.23;;;2.03;;
11807;SDS011;5961;42.640;23.380;2023-11-18T03:12:06;2.10;;;1.90;;
11807;SDS011;5961;42.640;23.380;2023-11-18T03:14:35;2.10;;;1.90;;
11807;SDS011;5961;42.640;23.380;2023-11-18T03:17:02;2.40;;;2.20;;
11807;SDS011;5961;42.640;23.380;2023-11-18T03:19:31;2.33;;;2.17;;
11807;SDS011;5961;42.640;23.380;2023-11-18T03:21:59;2.03;;;1.93;;
11807;SDS011;5961;42.640;23.380;2023-11-18T03:24:26;2.40;;;2.20;;
11807;SDS011;5961;42.640;23.380;2023-11-18T03:26:54;2.20;;;2.00;;
11807;SDS011;5961;42.640;23.380;2023-11-18T03:29:21;3.50;;;2.30;;
11807;SDS011;5961;42.640;23.380;2023-11-18T03:31:49;2.20;;;2.00;;
11807;SDS011;5961;42.640;23.380;2023-11-18T03:34:16;4.13;;;2.23;;
11807;SDS011;5961;42.640;23.380;2023-11-18T03:36:45;2.40;;;2.17;;
11807;SDS011;5961;42.640;23.380;2023-11-18T03:39:12;2.10;;;2.00;;
11807;SDS011;5961;42.640;23.380;2023-11-18T03:41:39;2.30;;;2.10;;
11807;SDS011;5961;42.640;23.380;2023-11-18T03:44:05;2.40;;;2.20;;
11807;SDS011;5961;42.640;23.380;2023-11-18T03:46:33;2.30;;;2.10;;
11807;SDS011;5961;42.640;23.380;2023-11-18T03:49:01;2.10;;;1.97;;
11807;SDS011;5961;42.640;23.380;2023-11-18T03:51:28;2.90;;;2.23;;
11807;SDS011;5961;42.640;23.380;2023-11-18T03:53:55;2.13;;;2.03;;
11807;SDS011;5961;42.640;23.380;2023-11-18T03:56:21;2.40;;;2.20;;
11807;SDS011;5961;42.640;23.380;2023-11-18T03:58:50;2.30;;;2.10;;
11807;SDS011;5961;42.640;23.380;2023-11-18T04:01:20;2.50;;;2.30;;
11807;SDS011;5961;42.640;23.380;2023-11-18T04:03:47;2.40;;;2.20;;
11807;SDS011;5961;42.640;23.380;2023-11-18T04:06:15;2.40;;;2.20;;
11807;SDS011;5961;42.640;23.380;2023-11-18T04:08:42;2.13;;;1.93;;
11807;SDS011;5961;42.640;23.380;2023-11-18T04:11:10;2.47;;;2.27;;
11807;SDS011;5961;42.640;23.380;2023-11-18T04:13:38;2.60;;;2.40;;
11807;SDS011;5961;42.640;23.380;2023-11-18T04:16:05;2.20;;;2.10;;
11807;SDS011;5961;42.640;23.380;2023-11-18T04:18:33;2.50;;;2.30;;
11807;SDS011;5961;42.640;23.380;2023-11-18T04:21:00;2.53;;;2.33;;
11807;SDS011;5961;42.640;23.380;2023-11-18T04:23:29;2.70;;;2.50;;
11807;SDS011;5961;42.640;23.380;2023-11-18T04:25:55;2.50;;;2.30;;
11807;SDS011;5961;42.640;23.380;2023-11-18T04:28:22;2.60;;;2.40;;
11807;SDS011;5961;42.640;23.380;2023-11-18T04:30:49;2.03;;;1.93;;
11807;SDS011;5961;42.640;23.380;2023-11-18T04:33:16;4.73;;;2.40;;
11807;SDS011;5961;42.640;23.380;2023-11-18T04:35:43;4.13;;;2.97;;
11807;SDS011;5961;42.640;23.380;2023-11-18T04:38:12;2.50;;;2.30;;
11807;SDS011;5961;42.640;23.380;2023-11-18T04:40:40;2.63;;;2.43;;
11807;SDS011;5961;42.640;23.380;2023-11-18T04:43:09;3.40;;;2.30;;
11807;SDS011;5961;42.640;23.380;2023-11-18T04:45:36;2.70;;;2.20;;
11807;SDS011;5961;42.640;23.380;2023-11-18T04:48:04;2.03;;;1.93;;
11807;SDS011;5961;42.640;23.380;2023-11-18T04:50:31;2.30;;;2.10;;
11807;SDS011;5961;42.640;23.380;2023-11-18T04:52:58;2.50;;;2.30;;
11807;SDS011;5961;42.640;23.380;2023-11-18T04:55:25;2.80;;;2.53;;
11807;SDS011;5961;42.640;23.380;2023-11-18T04:57:53;2.20;;;2.00;;
11807;SDS011;5961;42.640;23.380;2023-11-18T05:00:20;3.40;;;2.20;;
11807;SDS011;5961;42.640;23.380;2023-11-18T05:02:47;2.47;;;2.27;;
11807;SDS011;5961;42.640;23.380;2023-11-18T05:05:14;2.27;;;2.07;;
11807;SDS011;5961;42.640;23.380;2023-11-18T05:07:41;2.00;;;1.90;;
11807;SDS011;5961;42.640;23.380;2023-11-18T05:10:25;2.37;;;2.10;;
11807;SDS011;5961;42.640;23.380;2023-11-18T05:12:54;2.30;;;2.10;;
11807;SDS011;5961;42.640;23.380;2023-11-18T05:15:22;2.00;;;1.90;;
11807;SDS011;5961;42.640;23.380;2023-11-18T05:17:50;2.10;;;2.00;;
11807;SDS011;5961;42.640;23.380;2023-11-18T05:20:17;3.37;;;1.90;;
11807;SDS011;5961;42.640;23.380;2023-11-18T05:22:43;2.07;;;1.60;;
11807;SDS011;5961;42.640;23.380;2023-11-18T05:25:10;3.37;;;1.77;;
11807;SDS011;5961;42.640;23.380;2023-11-18T05:27:38;1.83;;;1.73;;
11807;SDS011;5961;42.640;23.380;2023-11-18T05:30:08;1.97;;;1.80;;
11807;SDS011;5961;42.640;23.380;2023-11-18T05:32:35;2.17;;;2.03;;
11807;SDS011;5961;42.640;23.380;2023-11-18T05:35:02;2.00;;;1.90;;
11807;SDS011;5961;42.640;23.380;2023-11-18T05:37:30;1.60;;;1.50;;
11807;SDS011;5961;42.640;23.380;2023-11-18T05:40:00;1.80;;;1.70;;
11807;SDS011;5961;42.640;23.380;2023-11-18T05:42:32;2.00;;;1.80;;
11807;SDS011;5961;42.640;23.380;2023-11-18T05:45:01;1.73;;;1.63;;
11807;SDS011;5961;42.640;23.380;2023-11-18T05:47:29;1.70;;;1.60;;
11807;SDS011;5961;42.640;23.380;2023-11-18T05:49:56;1.50;;;1.40;;
11807;SDS011;5961;42.640;23.380;2023-11-18T05:52:23;1.10;;;1.10;;
11807;SDS011;5961;42.640;23.380;2023-11-18T05:54:50;2.07;;;1.30;;
11807;SDS011;5961;42.640;23.380;2023-11-18T05:57:16;1.40;;;1.30;;
11807;SDS011;5961;42.640;23.380;2023-11-18T05:59:45;1.60;;;1.50;;
11807;SDS011;5961;42.640;23.380;2023-11-18T06:02:13;1.47;;;1.37;;
11807;SDS011;5961;42.640;23.380;2023-11-18T06:04:44;1.40;;;1.30;;
11807;SDS011;5961;42.640;23.380;2023-11-18T06:07:12;1.27;;;1.20;;
11807;SDS011;5961;42.640;23.380;2023-11-18T06:09:40;1.40;;;1.30;;
11807;SDS011;5961;42.640;23.380;2023-11-18T06:12:08;1.37;;;1.27;;
11807;SDS011;5961;42.640;23.380;2023-11-18T06:14:35;1.40;;;1.30;;
11807;SDS011;5961;42.640;23.380;2023-11-18T06:17:03;1.30;;;1.20;;
11807;SDS011;5961;42.640;23.380;2023-11-18T06:19:32;1.17;;;1.07;;
11807;SDS011;5961;42.640;23.380;2023-11-18T06:22:00;1.20;;;1.10;;
11807;SDS011;5961;42.640;23.380;2023-11-18T06:24:27;1.03;;;1.03;;
11807;SDS011;5961;42.640;23.380;2023-11-18T06:26:54;1.57;;;1.30;;
11807;SDS011;5961;42.640;23.380;2023-11-18T06:29:21;1.10;;;1.00;;
11807;SDS011;5961;42.640;23.380;2023-11-18T06:31:48;1.20;;;1.07;;
11807;SDS011;5961;42.640;23.380;2023-11-18T06:34:15;1.20;;;1.10;;
11807;SDS011;5961;42.640;23.380;2023-11-18T06:36:43;0.90;;;0.90;;
11807;SDS011;5961;42.640;23.380;2023-11-18T06:39:11;1.17;;;1.07;;
11807;SDS011;5961;42.640;23.380;2023-11-18T06:41:38;0.90;;;0.90;;
11807;SDS011;5961;42.640;23.380;2023-11-18T06:44:13;1.10;;;1.00;;
11807;SDS011;5961;42.640;23.380;2023-11-18T06:46:43;0.80;;;0.80;;
11807;SDS011;5961;42.640;23.380;2023-11-18T06:49:10;1.37;;;1.10;;
11807;SDS011;5961;42.640;23.380;2023-11-18T06:51:40;1.00;;;1.00;;
11807;SDS011;5961;42.640;23.380;2023-11-18T06:54:08;0.70;;;0.70;;
11807;SDS011;5961;42.640;23.380;2023-11-18T06:56:37;1.80;;;1.20;;
11807;SDS011;5961;42.640;23.380;2023-11-18T06:59:08;0.80;;;0.80;;
11807;SDS011;5961;42.640;23.380;2023-11-18T07:49:03;1.57;;;0.90;;
11807;SDS011;5961;42.640;23.380;2023-11-18T07:51:31;1.10;;;1.00;;
11807;SDS011;5961;42.640;23.380;2023-11-18T07:53:58;0.90;;;0.90;;
11807;SDS011;5961;42.640;23.380;2023-11-18T07:56:25;1.10;;;1.00;;
11807;SDS011;5961;42.640;23.380;2023-11-18T07:58:52;2.30;;;1.20;;
11807;SDS011;5961;42.640;23.380;2023-11-18T08:01:19;2.47;;;1.00;;
11807;SDS011;5961;42.640;23.380;2023-11-18T08:03:47;1.00;;;1.00;;
11807;SDS011;5961;42.640;23.380;2023-11-18T08:06:17;1.60;;;1.30;;
11807;SDS011;5961;42.640;23.380;2023-11-18T08:08:44;1.47;;;1.20;;
11807;SDS011;5961;42.640;23.380;2023-11-18T08:11:13;1.10;;;1.03;;
11807;SDS011;5961;42.640;23.380;2023-11-18T08:13:40;1.30;;;1.20;;
11807;SDS011;5961;42.640;23.380;2023-11-18T08:16:07;1.00;;;1.00;;
11807;SDS011;5961;42.640;23.380;2023-11-18T08:18:34;1.13;;;1.07;;
11807;SDS011;5961;42.640;23.380;2023-11-18T08:21:01;1.07;;;1.07;;
11807;SDS011;5961;42.640;23.380;2023-11-18T08:23:31;1.20;;;1.10;;
11807;SDS011;5961;42.640;23.380;2023-11-18T08:29:20;0.90;;;0.90;;
11807;SDS011;5961;42.640;23.380;2023-11-18T08:31:47;1.87;;;1.60;;
11807;SDS011;5961;42.640;23.380;2023-11-18T08:34:14;1.37;;;1.27;;
11807;SDS011;5961;42.640;23.380;2023-11-18T08:36:43;1.70;;;1.40;;
11807;SDS011;5961;42.640;23.380;2023-11-18T08:39:12;2.43;;;1.10;;
11807;SDS011;5961;42.640;23.380;2023-11-18T08:41:41;2.60;;;1.70;;
11807;SDS011;5961;42.640;23.380;2023-11-18T08:44:09;3.83;;;1.90;;
11807;SDS011;5961;42.640;23.380;2023-11-18T08:46:37;2.53;;;1.57;;
11807;SDS011;5961;42.640;23.380;2023-11-18T08:49:04;1.93;;;1.60;;
11807;SDS011;5961;42.640;23.380;2023-11-18T08:51:36;1.50;;;1.40;;
11807;SDS011;5961;42.640;23.380;2023-11-18T08:54:03;1.70;;;1.60;;
11807;SDS011;5961;42.640;23.380;2023-11-18T08:56:48;1.30;;;1.20;;
11807;SDS011;5961;42.640;23.380;2023-11-18T08:59:17;1.93;;;1.73;;
11807;SDS011;5961;42.640;23.380;2023-11-18T09:01:47;1.40;;;1.30;;
11807;SDS011;5961;42.640;23.380;2023-11-18T09:04:15;1.20;;;1.10;;
11807;SDS011;5961;42.640;23.380;2023-11-18T09:06:45;0.90;;;0.90;;
11807;SDS011;5961;42.640;23.380;2023-11-18T09:09:13;1.10;;;1.10;;
11807;SDS011;5961;42.640;23.380;2023-11-18T09:11:40;0.97;;;0.97;;
11807;SDS011;5961;42.640;23.380;2023-11-18T09:14:09;2.63;;;1.40;;
11807;SDS011;5961;42.640;23.380;2023-11-18T09:16:36;1.37;;;1.20;;
11807;SDS011;5961;42.640;23.380;2023-11-18T09:19:05;1.43;;;1.33;;
11807;SDS011;5961;42.640;23.380;2023-11-18T09:21:33;1.90;;;1.50;;
11807;SDS011;5961;42.640;23.380;2023-11-18T09:24:01;1.43;;;1.33;;
11807;SDS011;5961;42.640;23.380;2023-11-18T09:26:30;1.50;;;1.40;;
11807;SDS011;5961;42.640;23.380;2023-11-18T09:28:57;1.60;;;1.50;;
11807;SDS011;5961;42.640;23.380;2023-11-18T09:31:27;0.97;;;0.97;;
11807;SDS011;5961;42.640;23.380;2023-11-18T09:33:56;1.17;;;1.17;;
11807;SDS011;5961;42.640;23.380;2023-11-18T09:36:23;1.50;;;1.40;;
11807;SDS011;5961;42.640;23.380;2023-11-18T09:38:53;0.90;;;0.90;;
11807;SDS011;5961;42.640;23.380;2023-11-18T09:41:22;1.20;;;1.10;;
11807;SDS011;5961;42.640;23.380;2023-11-18T09:43:50;1.23;;;1.13;;
11807;SDS011;5961;42.640;23.380;2023-11-18T09:46:22;1.07;;;1.07;;
11807;SDS011;5961;42.640;23.380;2023-11-18T09:48:51;1.10;;;1.10;;
11807;SDS011;5961;42.640;23.380;2023-11-18T09:51:25;1.10;;;1.10;;
11807;SDS011;5961;42.640;23.380;2023-11-18T09:53:55;1.00;;;1.00;;
11807;SDS011;5961;42.640;23.380;2023-11-18T09:56:28;0.90;;;0.90;;
11807;SDS011;5961;42.640;23.380;2023-11-18T09:59:05;1.30;;;1.20;;
11807;SDS011;5961;42.640;23.380;2023-11-18T10:01:40;1.30;;;1.20;;
11807;SDS011;5961;42.640;23.380;2023-11-18T10:04:10;1.93;;;1.30;;
11807;SDS011;5961;42.640;23.380;2023-11-18T10:06:38;1.40;;;1.30;;
11807;SDS011;5961;42.640;23.380;2023-11-18T10:09:09;1.53;;;0.90;;
11807;SDS011;5961;42.640;23.380;2023-11-18T10:11:53;0.90;;;0.90;;
11807;SDS011;5961;42.640;23.380;2023-11-18T10:14:25;1.30;;;1.20;;
11807;SDS011;5961;42.640;23.380;2023-11-18T10:16:52;1.60;;;1.50;;
11807;SDS011;5961;42.640;23.380;2023-11-18T10:19:21;1.57;;;1.47;;
11807;SDS011;5961;42.640;23.380;2023-11-18T10:21:51;1.40;;;1.30;;
11807;SDS011;5961;42.640;23.380;2023-11-18T10:24:17;2.03;;;1.27;;
11807;SDS011;5961;42.640;23.380;2023-11-18T10:26:46;2.07;;;1.30;;
11807;SDS011;5961;42.640;23.380;2023-11-18T10:29:23;1.53;;;1.30;;
11807;SDS011;5961;42.640;23.380;2023-11-18T10:32:01;2.20;;;1.07;;
11807;SDS011;5961;42.640;23.380;2023-11-18T10:34:36;1.60;;;1.50;;
11807;SDS011;5961;42.640;23.380;2023-11-18T10:37:03;2.53;;;1.20;;
11807;SDS011;5961;42.640;23.380;2023-11-18T10:39:31;1.10;;;1.00;;
11807;SDS011;5961;42.640;23.380;2023-11-18T10:42:00;1.60;;;1.50;;
11807;SDS011;5961;42.640;23.380;2023-11-18T10:44:27;1.40;;;1.20;;
11807;SDS011;5961;42.640;23.380;2023-11-18T10:46:55;1.03;;;0.93;;
11807;SDS011;5961;42.640;23.380;2023-11-18T10:49:23;0.93;;;0.93;;
11807;SDS011;5961;42.640;23.380;2023-11-18T10:51:52;1.30;;;1.20;;
11807;SDS011;5961;42.640;23.380;2023-11-18T10:54:19;1.50;;;1.40;;
11807;SDS011;5961;42.640;23.380;2023-11-18T10:56:47;3.43;;;1.20;;
11807;SDS011;5961;42.640;23.380;2023-11-18T10:59:15;1.40;;;1.10;;
11807;SDS011;5961;42.640;23.380;2023-11-18T11:01:43;1.40;;;1.30;;
11807;SDS011;5961;42.640;23.380;2023-11-18T11:04:14;1.63;;;1.30;;
11807;SDS011;5961;42.640;23.380;2023-11-18T11:06:46;1.13;;;1.00;;
11807;SDS011;5961;42.640;23.380;2023-11-18T11:09:18;1.00;;;1.00;;
11807;SDS011;5961;42.640;23.380;2023-11-18T11:11:51;3.13;;;1.40;;
11807;SDS011;5961;42.640;23.380;2023-11-18T11:14:20;1.23;;;1.20;;
11807;SDS011;5961;42.640;23.380;2023-11-18T11:16:51;1.23;;;1.13;;
11807;SDS011;5961;42.640;23.380;2023-11-18T11:19:24;1.03;;;1.00;;
11807;SDS011;5961;42.640;23.380;2023-11-18T11:21:55;1.20;;;1.10;;
11807;SDS011;5961;42.640;23.380;2023-11-18T11:24:36;1.33;;;1.23;;
11807;SDS011;5961;42.640;23.380;2023-11-18T11:27:17;1.20;;;1.10;;
11807;SDS011;5961;42.640;23.380;2023-11-18T11:29:56;2.07;;;1.10;;
11807;SDS011;5961;42.640;23.380;2023-11-18T11:32:35;1.73;;;1.17;;
11807;SDS011;5961;42.640;23.380;2023-11-18T11:35:19;1.30;;;1.20;;
11807;SDS011;5961;42.640;23.380;2023-11-18T11:37:50;2.17;;;1.50;;
11807;SDS011;5961;42.640;23.380;2023-11-18T11:40:24;1.40;;;1.30;;
11807;SDS011;5961;42.640;23.380;2023-11-18T11:42:54;1.30;;;1.20;;
11807;SDS011;5961;42.640;23.380;2023-11-18T11:45:22;1.30;;;1.20;;
11807;SDS011;5961;42.640;23.380;2023-11-18T11:47:54;1.50;;;1.40;;
11807;SDS011;5961;42.640;23.380;2023-11-18T11:50:40;1.40;;;1.30;;
11807;SDS011;5961;42.640;23.380;2023-11-18T11:53:40;1.40;;;1.00;;
11807;SDS011;5961;42.640;23.380;2023-11-18T11:56:12;1.30;;;1.20;;
11807;SDS011;5961;42.640;23.380;2023-11-18T11:58:46;1.77;;;1.20;;
11807;SDS011;5961;42.640;23.380;2023-11-18T12:01:21;1.23;;;1.17;;
11807;SDS011;5961;42.640;23.380;2023-11-18T12:03:56;1.40;;;1.30;;
11807;SDS011;5961;42.640;23.380;2023-11-18T12:06:23;1.67;;;1.30;;
11807;SDS011;5961;42.640;23.380;2023-11-18T12:08:51;1.40;;;1.30;;
11807;SDS011;5961;42.640;23.380;2023-11-18T12:11:20;1.17;;;1.07;;
11807;SDS011;5961;42.640;23.380;2023-11-18T12:14:01;1.07;;;1.07;;
11807;SDS011;5961;42.640;23.380;2023-11-18T12:19:32;1.60;;;1.40;;
11807;SDS011;5961;42.640;23.380;2023-11-18T12:22:10;3.50;;;1.37;;
11807;SDS011;5961;42.640;23.380;2023-11-18T12:24:43;1.50;;;1.40;;
11807;SDS011;5961;42.640;23.380;2023-11-18T12:27:13;1.40;;;1.30;;
11807;SDS011;5961;42.640;23.380;2023-11-18T12:29:43;1.60;;;1.30;;
11807;SDS011;5961;42.640;23.380;2023-11-18T12:32:10;1.43;;;1.33;;
11807;SDS011;5961;42.640;23.380;2023-11-18T12:34:51;1.40;;;1.30;;
11807;SDS011;5961;42.640;23.380;2023-11-18T12:37:32;1.50;;;1.40;;
11807;SDS011;5961;42.640;23.380;2023-11-18T12:40:23;2.20;;;1.23;;
11807;SDS011;5961;42.640;23.380;2023-11-18T12:43:13;1.57;;;1.47;;
11807;SDS011;5961;42.640;23.380;2023-11-18T12:48:56;1.50;;;1.40;;
11807;SDS011;5961;42.640;23.380;2023-11-18T12:51:25;2.00;;;1.50;;
11807;SDS011;5961;42.640;23.380;2023-11-18T12:53:52;1.77;;;1.43;;
11807;SDS011;5961;42.640;23.380;2023-11-18T12:56:20;1.50;;;1.40;;
11807;SDS011;5961;42.640;23.380;2023-11-18T12:58:49;1.60;;;1.50;;
11807;SDS011;5961;42.640;23.380;2023-11-18T13:01:17;1.60;;;1.50;;
11807;SDS011;5961;42.640;23.380;2023-11-18T13:03:44;1.60;;;1.50;;
11807;SDS011;5961;42.640;23.380;2023-11-18T13:06:12;2.33;;;1.60;;
11807;SDS011;5961;42.640;23.380;2023-11-18T13:08:40;1.57;;;1.47;;
11807;SDS011;5961;42.640;23.380;2023-11-18T13:11:07;1.20;;;1.20;;
11807;SDS011;5961;42.640;23.380;2023-11-18T13:13:40;1.40;;;1.30;;
11807;SDS011;5961;42.640;23.380;2023-11-18T13:16:09;1.40;;;1.30;;
11807;SDS011;5961;42.640;23.380;2023-11-18T13:18:43;2.37;;;1.73;;
11807;SDS011;5961;42.640;23.380;2023-11-18T13:21:15;3.50;;;1.80;;
11807;SDS011;5961;42.640;23.380;2023-11-18T13:23:45;1.97;;;1.80;;
11807;SDS011;5961;42.640;23.380;2023-11-18T13:26:13;1.80;;;1.70;;
11807;SDS011;5961;42.640;23.380;2023-11-18T13:28:40;2.97;;;1.77;;
11807;SDS011;5961;42.640;23.380;2023-11-18T13:31:10;2.00;;;1.80;;
11807;SDS011;5961;42.640;23.380;2023-11-18T13:33:41;1.70;;;1.60;;
11807;SDS011;5961;42.640;23.380;2023-11-18T13:36:09;2.93;;;1.67;;
11807;SDS011;5961;42.640;23.380;2023-11-18T13:38:36;2.43;;;1.60;;
11807;SDS011;5961;42.640;23.380;2023-11-18T13:41:04;2.73;;;2.07;;
11807;SDS011;5961;42.640;23.380;2023-11-18T13:43:43;3.20;;;1.80;;
11807;SDS011;5961;42.640;23.380;2023-11-18T13:46:12;2.00;;;1.90;;
11807;SDS011;5961;42.640;23.380;2023-11-18T13:48:40;2.17;;;1.60;;
11807;SDS011;5961;42.640;23.380;2023-11-18T13:51:08;1.70;;;1.60;;
11807;SDS011;5961;42.640;23.380;2023-11-18T13:53:39;2.23;;;1.83;;
11807;SDS011;5961;42.640;23.380;2023-11-18T13:56:08;1.73;;;1.63;;
11807;SDS011;5961;42.640;23.380;2023-11-18T13:58:35;1.60;;;1.50;;
11807;SDS011;5961;42.640;23.380;2023-11-18T14:01:04;1.77;;;1.67;;
11807;SDS011;5961;42.640;23.380;2023-11-18T14:03:34;3.00;;;1.97;;
11807;SDS011;5961;42.640;23.380;2023-11-18T14:06:02;2.30;;;2.10;;
11807;SDS011;5961;42.640;23.380;2023-11-18T14:08:29;2.13;;;1.93;;
11807;SDS011;5961;42.640;23.380;2023-11-18T14:10:56;1.70;;;1.60;;
11807;SDS011;5961;42.640;23.380;2023-11-18T14:13:23;3.13;;;2.30;;
11807;SDS011;5961;42.640;23.380;2023-11-18T14:15:54;2.20;;;2.00;;
11807;SDS011;5961;42.640;23.380;2023-11-18T14:18:22;2.80;;;2.10;;
11807;SDS011;5961;42.640;23.380;2023-11-18T14:20:50;3.80;;;2.00;;
11807;SDS011;5961;42.640;23.380;2023-11-18T14:23:17;2.03;;;1.83;;
11807;SDS011;5961;42.640;23.380;2023-11-18T14:25:43;1.93;;;1.70;;
11807;SDS011;5961;42.640;23.380;2023-11-18T14:28:10;2.33;;;2.00;;
11807;SDS011;5961;42.640;23.380;2023-11-18T14:30:38;1.97;;;1.87;;
11807;SDS011;5961;42.640;23.380;2023-11-18T14:33:05;3.53;;;2.40;;
11807;SDS011;5961;42.640;23.380;2023-11-18T14:35:33;2.57;;;2.37;;
11807;SDS011;5961;42.640;23.380;2023-11-18T14:38:01;2.87;;;2.10;;
11807;SDS011;5961;42.640;23.380;2023-11-18T14:40:28;2.43;;;2.23;;
11807;SDS011;5961;42.640;23.380;2023-11-18T14:42:55;2.70;;;2.33;;
11807;SDS011;5961;42.640;23.380;2023-11-18T14:45:22;2.50;;;2.30;;
11807;SDS011;5961;42.640;23.380;2023-11-18T14:47:49;3.23;;;2.20;;
11807;SDS011;5961;42.640;23.380;2023-11-18T14:50:18;2.33;;;2.13;;
11807;SDS011;5961;42.640;23.380;2023-11-18T14:52:46;2.93;;;2.30;;
11807;SDS011;5961;42.640;23.380;2023-11-18T14:55:15;2.60;;;2.00;;
11807;SDS011;5961;42.640;23.380;2023-11-18T14:57:42;3.27;;;2.20;;
11807;SDS011;5961;42.640;23.380;2023-11-18T15:00:10;3.00;;;2.30;;
11807;SDS011;5961;42.640;23.380;2023-11-18T15:02:44;2.77;;;2.17;;
11807;SDS011;5961;42.640;23.380;2023-11-18T15:05:13;2.40;;;2.20;;
11807;SDS011;5961;42.640;23.380;2023-11-18T15:07:43;2.30;;;2.10;;
11807;SDS011;5961;42.640;23.380;2023-11-18T15:10:12;2.40;;;2.20;;
11807;SDS011;5961;42.640;23.380;2023-11-18T15:12:45;2.63;;;2.30;;
11807;SDS011;5961;42.640;23.380;2023-11-18T15:15:12;3.27;;;2.27;;
11807;SDS011;5961;42.640;23.380;2023-11-18T15:17:43;3.00;;;2.30;;
11807;SDS011;5961;42.640;23.380;2023-11-18T15:20:11;2.03;;;1.90;;
11807;SDS011;5961;42.640;23.380;2023-11-18T15:22:40;2.30;;;2.10;;
11807;SDS011;5961;42.640;23.380;2023-11-18T15:25:09;2.40;;;2.10;;
11807;SDS011;5961;42.640;23.380;2023-11-18T15:27:39;3.00;;;2.70;;
11807;SDS011;5961;42.640;23.380;2023-11-18T15:30:07;2.50;;;2.30;;
11807;SDS011;5961;42.640;23.380;2023-11-18T15:32:36;2.33;;;2.13;;
11807;SDS011;5961;42.640;23.380;2023-11-18T15:35:04;2.20;;;2.00;;
11807;SDS011;5961;42.640;23.380;2023-11-18T15:37:34;2.23;;;2.00;;
11807;SDS011;5961;42.640;23.380;2023-11-18T15:40:02;2.40;;;2.20;;
11807;SDS011;5961;42.640;23.380;2023-11-18T15:42:35;3.13;;;2.40;;
11807;SDS011;5961;42.640;23.380;2023-11-18T15:45:04;3.10;;;2.20;;
11807;SDS011;5961;42.640;23.380;2023-11-18T15:47:35;3.47;;;2.33;;
11807;SDS011;5961;42.640;23.380;2023-11-18T15:50:03;2.40;;;2.20;;
11807;SDS011;5961;42.640;23.380;2023-11-18T15:52:31;2.60;;;1.90;;
11807;SDS011;5961;42.640;23.380;2023-11-18T15:54:59;2.10;;;1.93;;
11807;SDS011;5961;42.640;23.380;2023-11-18T15:57:27;2.53;;;2.20;;
11807;SDS011;5961;42.640;23.380;2023-11-18T15:59:54;2.67;;;2.10;;